Accueil
METAR-TAF:

METAR-TAF

Aéroports :

Aéroport international de Mandalay

Mandalay, Birmanie

latitude: 21-59N, longitude: 096-06E, altitude: 74 m

Observation

Le bulletin a été fait il y a 20 minutes, à 11:30 UTC
Vent 3 kt de sud-est
Température 38°C
Humidité 33%
Pression 1002 hPa
Visibilité: 6000 m
Quelques nuages à une hauteur de 2000 ft

METAR: VYMD 281130Z 14003KT 6000 FEW020 38/19 Q1002 NOSIG

Heure: 18:20 (11:50 UTC)

Prévision

Le bulletin a été fait il y a 50 minutes, à 11:00 UTC
Prévision valable du 28 à 12 UTC au 29 à 12 UTC
Vent 5 kt de sud
Visibilité: 6000 m
Quelques nuages à une hauteur de 2000 ft
Temporairement
du 28 à 12 UTC au 28 à 18 UTC
Vent 7 kt de sud
Visibilité: 6000 m
Nuages épars à une hauteur de 2000 ft
brume sèche

TAF: VYMD 281100Z 2812/2912 19005KT 6000 FEW020 TEMPO 2812/2818 18007KT 6000 HZ SCT020

Observations et prévisions météorologiques de plus de 4000 aéroports (messages METAR et TAF).

Les stations disponibles sont représentées par des disques jaunes et rouges sur la carte.

Passer la souris dessus pour voir le nom de la station.

Cliquer dessus pour voir les observations et prévisions météorologiques.

Pour changer de carte: cliquez sur les boutons verts avec une croix noire pour zoomer, sur le bouton vert avec un tiret pour effectuer un zoom arrière, ou sur les flèches vertes pour les cartes adjacentes.


METAR-TAF: